Time;durP1;ratioP1;P1;durP2;ratioP2;P2;SDS_P1;SDS_P2;PMS_P1;PMS_P2;Temp;Humidity;BMP_temperature;BMP_pressure;BME280_temperature;BME280_humidity;BME280_pressure;Samples;Min_cycle;Max_cycle;Signal;HPM_P1;HPM_P2
2022/11/12 00:00:23;;;;;;;24.17;14.07;;;;;;;9.13;77.08;95249.84;5065370;28;20059;-74
2022/11/12 00:02:49;;;;;;;20.50;10.93;;;;;;;9.11;77.05;95257.31;5065609;28;20226;-74
2022/11/12 00:05:14;;;;;;;34.03;16.60;;;;;;;9.05;76.23;95256.50;5065185;28;20270;-74
2022/11/12 00:07:40;;;;;;;31.00;17.08;;;;;;;9.03;76.07;95248.00;5065310;28;20119;-75
2022/11/12 00:10:06;;;;;;;34.60;15.43;;;;;;;9.00;75.81;95241.38;5065175;28;20025;-75
2022/11/12 00:12:31;;;;;;;27.95;12.88;;;;;;;9.01;75.86;95244.81;5065105;28;20119;-75
2022/11/12 00:14:57;;;;;;;28.08;14.90;;;;;;;9.02;75.99;95238.44;5064973;28;20088;-74
2022/11/12 00:17:22;;;;;;;30.45;15.50;;;;;;;8.97;75.75;95230.47;5064922;28;20096;-75
2022/11/12 00:19:48;;;;;;;32.42;18.52;;;;;;;8.91;76.11;95234.19;5065002;28;20087;-75
2022/11/12 00:22:13;;;;;;;37.17;18.42;;;;;;;8.84;76.04;95242.44;5064889;28;20024;-75
2022/11/12 00:24:39;;;;;;;36.05;17.90;;;;;;;8.76;76.62;95241.13;5064929;28;20031;-75
2022/11/12 00:27:04;;;;;;;35.65;18.33;;;;;;;8.73;77.05;95240.84;5064779;28;20027;-75
2022/11/12 00:29:30;;;;;;;32.15;17.67;;;;;;;8.69;77.02;95253.91;5064715;28;20032;-75
2022/11/12 00:31:55;;;;;;;33.60;18.50;;;;;;;8.64;76.92;95254.69;5064802;28;20021;-75
2022/11/12 00:34:21;;;;;;;43.25;21.23;;;;;;;8.62;76.54;95254.16;5064589;28;20276;-75
2022/11/12 00:36:47;;;;;;;34.65;19.05;;;;;;;8.60;76.67;95248.31;5064824;28;20074;-74
2022/11/12 00:39:12;;;;;;;38.03;20.33;;;;;;;8.56;76.69;95249.91;5064543;28;20060;-75
2022/11/12 00:41:37;;;;;;;35.17;18.48;;;;;;;8.55;76.77;95252.84;5064626;28;20017;-75
2022/11/12 00:44:03;;;;;;;45.25;21.20;;;;;;;8.53;77.08;95245.13;5063559;28;20025;-75
2022/11/12 00:46:28;;;;;;;38.05;18.02;;;;;;;8.54;76.91;95240.59;5064426;28;20047;-74
2022/11/12 00:48:54;;;;;;;36.17;18.65;;;;;;;8.52;77.14;95246.19;5064434;28;20334;-75
2022/11/12 00:51:22;;;;;;;41.53;19.10;;;;;;;8.52;77.66;95250.69;5064356;28;20334;-74
2022/11/12 00:53:48;;;;;;;36.88;18.40;;;;;;;8.52;77.83;95246.19;5064421;28;20078;-74
2022/11/12 00:56:14;;;;;;;42.05;18.55;;;;;;;8.53;77.73;95239.81;5064263;28;20017;-74
2022/11/12 00:58:40;;;;;;;35.25;18.80;;;;;;;8.53;78.07;95249.63;5064165;28;20320;-74
2022/11/12 01:01:11;;;;;;;31.77;17.75;;;;;;;8.51;78.13;95233.97;5064209;28;20023;-74
2022/11/12 01:03:38;;;;;;;40.00;19.30;;;;;;;8.53;78.34;95225.72;5064243;28;20021;-74
2022/11/12 01:06:15;;;;;;;36.80;17.33;;;;;;;8.55;78.87;95213.78;5064073;28;20025;-74
2022/11/12 01:08:42;;;;;;;39.13;19.50;;;;;;;8.57;78.24;95219.63;5063971;28;20024;-74
2022/11/12 01:11:20;;;;;;;37.63;18.70;;;;;;;8.59;77.04;95209.50;5063703;28;20033;-74
2022/11/12 01:13:47;;;;;;;38.95;18.45;;;;;;;8.52;77.21;95222.25;5063989;28;20070;-74
2022/11/12 01:16:19;;;;;;;37.22;18.30;;;;;;;8.52;77.43;95224.91;5063910;28;20265;-74
2022/11/12 01:18:45;;;;;;;41.22;19.33;;;;;;;8.51;77.28;95226.00;5063920;28;20108;-75
2022/11/12 01:21:12;;;;;;;36.90;18.52;;;;;;;8.48;76.95;95225.72;5063403;28;20023;-74
2022/11/12 01:23:40;;;;;;;34.92;19.88;;;;;;;8.45;77.32;95224.41;5063790;28;20028;-74
2022/11/12 01:26:08;;;;;;;40.63;19.33;;;;;;;8.41;77.39;95226.78;5063647;28;20033;-74
2022/11/12 01:28:34;;;;;;;38.28;19.85;;;;;;;8.43;77.60;95231.84;5063643;28;20025;-74
2022/11/12 01:31:36;;;;;;;37.25;18.85;;;;;;;8.50;77.41;95228.91;5063296;28;20226;-74
2022/11/12 01:34:05;;;;;;;37.03;18.90;;;;;;;8.48;77.34;95229.16;5041982;28;20262;-74
2022/11/12 01:36:34;;;;;;;42.58;20.38;;;;;;;8.49;77.58;95225.47;5063366;28;20032;-74
2022/11/12 01:38:59;;;;;;;37.97;18.48;;;;;;;8.49;77.90;95224.66;5063601;28;20024;-74
2022/11/12 01:41:29;;;;;;;39.28;20.52;;;;;;;8.53;78.05;95215.06;5063552;28;20017;-74
2022/11/12 01:44:12;;;;;;;44.38;20.63;;;;;;;8.57;78.09;95214.31;5063340;28;20029;-75
2022/11/12 01:46:57;;;;;;;36.55;19.23;;;;;;;8.56;77.68;95204.72;5063264;28;20074;-75
2022/11/12 01:49:45;;;;;;;36.38;19.08;;;;;;;8.61;77.55;95207.38;5063298;28;20021;-75
2022/11/12 01:52:13;;;;;;;35.03;18.80;;;;;;;8.70;78.00;95198.88;5063565;28;20416;-75
2022/11/12 01:54:40;;;;;;;36.58;18.85;;;;;;;8.73;77.88;95208.97;5063395;28;20025;-74
2022/11/12 01:57:08;;;;;;;43.38;19.63;;;;;;;8.76;77.45;95203.13;5062828;28;20219;-75
2022/11/12 01:59:39;;;;;;;33.85;17.83;;;;;;;8.79;76.94;95211.38;5063203;28;20230;-75
2022/11/12 02:02:04;;;;;;;35.75;18.48;;;;;;;8.80;77.42;95209.50;5063363;28;20043;-75
2022/11/12 02:04:32;;;;;;;35.88;18.17;;;;;;;8.84;77.55;95199.91;5063263;28;20028;-75
2022/11/12 02:06:58;;;;;;;34.00;14.82;;;;;;;8.84;77.17;95194.59;5063101;28;20024;-75
2022/11/12 02:09:24;;;;;;;29.00;15.18;;;;;;;8.89;76.55;95213.19;5062965;28;20089;-75
2022/11/12 02:11:49;;;;;;;30.02;16.00;;;;;;;8.92;76.87;95217.19;5063003;28;20025;-75
2022/11/12 02:14:15;;;;;;;28.92;14.50;;;;;;;8.95;76.90;95201.47;5063032;28;20091;-75
2022/11/12 02:16:43;;;;;;;25.10;13.80;;;;;;;8.96;77.11;95200.41;5063013;28;20092;-75
2022/11/12 02:19:12;;;;;;;25.08;13.70;;;;;;;8.98;76.84;95200.16;5062938;28;20036;-75
2022/11/12 02:21:37;;;;;;;25.65;12.80;;;;;;;8.96;76.31;95194.31;5062922;28;20028;-75
2022/11/12 02:24:25;;;;;;;24.30;12.18;;;;;;;8.96;75.79;95191.66;5063003;28;20146;-75
2022/11/12 02:26:53;;;;;;;24.35;12.02;;;;;;;8.96;75.61;95208.41;5062866;28;20094;-75
2022/11/12 02:29:18;;;;;;;23.67;11.75;;;;;;;8.93;75.63;95200.16;5062790;28;20074;-75
2022/11/12 02:31:44;;;;;;;22.23;12.20;;;;;;;8.93;75.22;95208.13;5062756;28;20036;-74
2022/11/12 02:34:09;;;;;;;21.55;11.65;;;;;;;8.95;74.86;95201.47;5062860;28;20032;-74
2022/11/12 02:36:35;;;;;;;24.67;11.35;;;;;;;8.97;74.72;95203.88;5062673;28;20337;-73
2022/11/12 02:39:00;;;;;;;21.30;11.90;;;;;;;8.97;74.98;95209.97;5062622;28;20070;-74
2022/11/12 02:41:26;;;;;;;24.33;11.52;;;;;;;8.97;74.45;95207.31;5062588;28;20021;-74
2022/11/12 02:43:51;;;;;;;21.08;10.52;;;;;;;8.95;74.31;95201.47;5062750;28;20096;-74
2022/11/12 02:46:17;;;;;;;19.30;9.25;;;;;;;8.97;74.20;95203.88;5062901;28;20284;-74
2022/11/12 02:48:43;;;;;;;22.55;8.77;;;;;;;8.98;74.14;95203.59;5062624;28;20025;-74
2022/11/12 02:51:08;;;;;;;20.55;11.38;;;;;;;8.97;74.19;95199.34;5062553;28;20028;-75
2022/11/12 02:53:34;;;;;;;20.88;10.63;;;;;;;8.94;74.37;95210.53;5062371;28;20200;-75
2022/11/12 02:56:00;;;;;;;22.30;11.50;;;;;;;8.93;74.32;95208.13;5062593;28;20037;-75
2022/11/12 02:58:27;;;;;;;22.45;11.25;;;;;;;8.92;74.58;95207.34;5062632;28;20045;-75
2022/11/12 03:00:52;;;;;;;21.15;11.48;;;;;;;8.91;74.52;95207.59;5062633;28;20084;-75
2022/11/12 03:03:18;;;;;;;24.35;11.48;;;;;;;8.88;74.57;95203.63;5062607;28;20033;-75
2022/11/12 03:05:45;;;;;;;21.38;11.38;;;;;;;8.90;74.62;95201.50;5062274;28;20021;-75
2022/11/12 03:08:10;;;;;;;19.17;9.85;;;;;;;8.88;74.21;95190.34;5064561;28;20088;-75
2022/11/12 03:10:38;;;;;;;17.83;10.20;;;;;;;8.89;74.29;95194.56;5066262;28;20215;-75
2022/11/12 03:13:04;;;;;;;20.63;11.02;;;;;;;8.84;74.10;95183.97;5066413;28;20025;-75
2022/11/12 03:15:29;;;;;;;16.88;9.60;;;;;;;8.80;73.61;95182.91;5066322;28;20362;-74
2022/11/12 03:17:57;;;;;;;18.00;8.82;;;;;;;8.67;73.00;95173.63;5066069;28;20021;-75
2022/11/12 03:20:23;;;;;;;15.95;7.68;;;;;;;8.62;72.21;95177.06;5066332;28;20048;-74
2022/11/12 03:23:02;;;;;;;9.68;5.57;;;;;;;8.64;70.99;95185.56;5066296;28;20207;-74
2022/11/12 03:25:28;;;;;;;9.75;4.70;;;;;;;8.61;69.24;95185.34;5066100;28;20265;-74
2022/11/12 03:28:01;;;;;;;9.68;5.25;;;;;;;8.62;68.96;95193.03;5066171;28;20024;-75
2022/11/12 03:30:28;;;;;;;10.48;5.38;;;;;;;8.62;68.75;95189.56;5065974;28;20033;-74
2022/11/12 03:32:54;;;;;;;10.32;4.68;;;;;;;8.61;68.27;95196.75;5065858;28;20326;-74
2022/11/12 03:35:20;;;;;;;8.55;4.50;;;;;;;8.59;67.29;95198.88;5066150;28;20021;-75
2022/11/12 03:37:45;;;;;;;12.73;6.00;;;;;;;8.61;67.56;95204.72;5065932;28;20029;-75
2022/11/12 03:40:11;;;;;;;16.65;8.02;;;;;;;8.62;69.02;95197.53;5065974;28;20039;-75
2022/11/12 03:42:36;;;;;;;17.95;9.35;;;;;;;8.62;70.57;95198.34;5065651;28;20036;-75
2022/11/12 03:45:02;;;;;;;16.73;8.93;;;;;;;8.64;71.49;95206.84;5065792;28;20048;-75
2022/11/12 03:47:27;;;;;;;15.05;8.90;;;;;;;8.63;71.87;95199.94;5065694;28;20024;-75
2022/11/12 03:49:53;;;;;;;22.35;11.77;;;;;;;8.61;72.55;95202.06;5065624;28;20029;-75
2022/11/12 03:52:19;;;;;;;25.98;11.98;;;;;;;8.57;72.85;95206.31;5065767;28;20092;-75
2022/11/12 03:54:44;;;;;;;24.52;12.50;;;;;;;8.57;73.29;95203.66;5065602;28;20017;-75
2022/11/12 03:57:10;;;;;;;24.58;12.23;;;;;;;8.54;73.64;95200.75;5065439;28;20028;-75
2022/11/12 03:59:35;;;;;;;18.33;10.77;;;;;;;8.55;74.09;95203.13;5065411;28;20028;-75
2022/11/12 04:02:00;;;;;;;24.48;11.80;;;;;;;8.54;74.34;95201.53;5065399;28;20029;-75
2022/11/12 04:08:34;;;;;;;21.98;11.45;;;;;;;8.52;74.55;95202.88;5065326;28;20048;-75
2022/11/12 04:09:55;;;;;;;21.08;11.40;;;;;;;8.48;74.23;95205.25;5065172;28;20403;-75
2022/11/12 04:15:05;;;;;;;21.25;10.95;;;;;;;8.46;74.18;95199.41;5065235;28;20081;-74
2022/11/12 04:22:58;;;;;;;19.55;10.98;;;;;;;8.33;74.23;95186.66;5064979;28;20333;-74
2022/11/12 04:28:07;;;;;;;19.77;10.68;;;;;;;8.19;74.47;95184.50;5064940;28;20055;-74
2022/11/12 04:30:33;;;;;;;24.60;12.20;;;;;;;8.15;74.48;95183.44;5064746;28;20025;-75
2022/11/12 04:32:58;;;;;;;21.55;11.65;;;;;;;8.10;74.49;95175.50;5064763;28;20035;-75
2022/11/12 04:35:25;;;;;;;23.40;11.90;;;;;;;8.06;74.41;95179.72;5064894;28;20024;-75
2022/11/12 04:37:51;;;;;;;20.88;11.20;;;;;;;8.01;74.29;95185.03;5064937;28;20021;-75
2022/11/12 04:45:57;;;;;;;17.40;8.70;;;;;;;7.78;72.73;95179.16;5064446;28;20314;-75
2022/11/12 04:48:24;;;;;;;16.58;8.18;;;;;;;7.74;72.25;95175.44;5064652;28;20215;-75
2022/11/12 04:50:54;;;;;;;16.77;8.88;;;;;;;7.69;71.88;95177.25;5064738;28;20082;-75
2022/11/12 04:53:20;;;;;;;16.70;8.50;;;;;;;7.67;71.47;95182.84;5064677;28;20251;-75
2022/11/12 04:55:52;;;;;;;15.57;8.20;;;;;;;7.65;71.63;95184.94;5064478;28;20028;-75
2022/11/12 04:58:17;;;;;;;13.75;7.35;;;;;;;7.66;71.26;95197.16;5064224;28;20037;-75
2022/11/12 05:00:43;;;;;;;13.90;7.43;;;;;;;7.67;72.03;95192.66;5064260;28;20407;-75
2022/11/12 05:03:09;;;;;;;14.40;7.35;;;;;;;7.63;72.29;95208.28;5064314;28;20052;-75
2022/11/12 05:05:34;;;;;;;15.23;7.57;;;;;;;7.67;72.45;95204.06;5064150;28;20021;-75
2022/11/12 05:08:01;;;;;;;11.93;6.80;;;;;;;7.68;72.64;95202.22;5064218;28;20024;-75
2022/11/12 05:10:26;;;;;;;14.75;7.88;;;;;;;7.71;72.88;95207.78;5064010;28;20314;-75
2022/11/12 05:12:52;;;;;;;12.10;7.35;;;;;;;7.72;73.21;95211.25;5064153;28;20090;-75
2022/11/12 05:15:17;;;;;;;21.65;8.65;;;;;;;7.77;73.21;95214.69;5064144;28;20033;-74
2022/11/12 05:17:44;;;;;;;20.85;9.05;;;;;;;7.77;73.16;95211.25;5063968;28;20040;-75
2022/11/12 05:20:12;;;;;;;16.98;8.25;;;;;;;7.81;73.31;95218.44;5064036;28;20029;-75
2022/11/12 05:22:38;;;;;;;15.48;7.47;;;;;;;7.82;73.36;95222.69;5063821;28;20036;-75
2022/11/12 05:25:05;;;;;;;15.55;7.93;;;;;;;7.87;72.92;95223.75;5063970;28;20013;-75
2022/11/12 05:27:30;;;;;;;13.98;7.25;;;;;;;7.88;72.86;95222.72;5063942;28;20275;-75
2022/11/12 05:29:56;;;;;;;13.85;8.02;;;;;;;7.89;73.00;95226.94;5063198;28;20025;-75
2022/11/12 05:32:21;;;;;;;14.05;6.82;;;;;;;7.90;72.76;95226.69;5063819;28;20021;-75
2022/11/12 05:34:47;;;;;;;13.35;7.30;;;;;;;7.95;72.53;95220.59;5062492;28;20025;-75
2022/11/12 05:37:13;;;;;;;14.60;7.57;;;;;;;7.94;72.51;95233.06;5063680;28;20024;-75
2022/11/12 05:39:39;;;;;;;12.90;5.68;;;;;;;7.96;72.67;95228.31;5063552;28;20075;-75
2022/11/12 05:42:05;;;;;;;13.90;6.00;;;;;;;7.98;72.33;95231.50;5063511;28;20024;-75
2022/11/12 05:44:31;;;;;;;12.15;6.32;;;;;;;8.03;72.12;95233.34;5063501;28;20028;-75
2022/11/12 05:46:56;;;;;;;12.60;7.25;;;;;;;8.08;71.70;95235.22;5063478;28;20298;-75
2022/11/12 05:49:22;;;;;;;14.35;5.85;;;;;;;8.14;70.77;95228.84;5063448;28;20048;-75
2022/11/12 05:51:47;;;;;;;16.15;7.05;;;;;;;8.17;70.38;95231.00;5063330;28;20048;-74
2022/11/12 05:54:13;;;;;;;13.60;7.13;;;;;;;8.22;70.38;95234.47;5063275;28;20088;-74
2022/11/12 05:56:39;;;;;;;11.70;6.55;;;;;;;8.29;70.78;95236.84;5063225;28;20029;-74
2022/11/12 05:59:07;;;;;;;11.80;6.38;;;;;;;8.33;70.65;95235.25;5063042;28;20394;-75
2022/11/12 06:01:37;;;;;;;10.25;5.70;;;;;;;8.37;70.32;95233.66;5063270;28;20025;-75
2022/11/12 06:04:03;;;;;;;12.70;6.53;;;;;;;8.45;69.61;95245.66;5063233;28;20029;-75
2022/11/12 06:06:28;;;;;;;11.85;5.38;;;;;;;8.50;68.63;95248.31;5063131;28;20355;-75
2022/11/12 06:08:54;;;;;;;8.98;4.68;;;;;;;8.55;67.90;95244.88;5061787;28;20048;-74
2022/11/12 06:11:19;;;;;;;8.10;4.82;;;;;;;8.61;67.59;95249.91;5062965;28;20025;-74
2022/11/12 06:13:44;;;;;;;11.10;5.55;;;;;;;8.68;67.20;95248.84;5063112;28;20275;-75
2022/11/12 06:16:10;;;;;;;11.38;5.10;;;;;;;8.74;66.92;95248.56;5061764;28;20054;-75
2022/11/12 06:18:36;;;;;;;8.13;5.03;;;;;;;8.80;64.01;95252.03;5062948;28;20092;-75
2022/11/12 06:21:18;;;;;;;6.95;4.93;;;;;;;8.84;64.05;95243.25;5062755;28;20364;-75
2022/11/12 06:23:44;;;;;;;;;;;;;;;8.92;63.63;95244.56;5063274;28;20025;-76
2022/11/12 06:26:10;;;;;;;6.53;4.28;;;;;;;8.92;62.79;95244.56;5063246;28;20088;-76
2022/11/12 06:28:35;;;;;;;7.05;3.90;;;;;;;8.94;61.73;95250.41;5062800;28;20028;-74
2022/11/12 06:31:00;;;;;;;7.57;4.38;;;;;;;8.97;61.50;95249.88;5062806;28;20063;-76
2022/11/12 06:33:26;;;;;;;8.02;4.57;;;;;;;8.98;61.94;95246.16;5062778;28;20306;-74
2022/11/12 06:36:01;;;;;;;9.90;4.75;;;;;;;8.98;61.99;95242.72;5062842;28;20021;-76
2022/11/12 06:38:28;;;;;;;10.32;4.72;;;;;;;9.05;61.67;95243.22;5062523;28;20016;-75
2022/11/12 06:40:53;;;;;;;10.20;5.05;;;;;;;9.12;61.06;95237.59;5062651;28;20019;-74
2022/11/12 06:43:19;;;;;;;9.55;4.28;;;;;;;9.10;60.44;95247.72;5065013;28;20013;-74
2022/11/12 06:45:44;;;;;;;7.25;4.18;;;;;;;9.09;60.28;95257.56;5066540;28;20131;-75
2022/11/12 06:48:09;;;;;;;9.63;4.57;;;;;;;9.06;60.72;95254.63;5066420;28;20020;-74
2022/11/12 06:50:35;;;;;;;8.75;4.53;;;;;;;9.07;60.75;95266.88;5066525;28;20075;-75
2022/11/12 06:53:00;;;;;;;13.07;4.30;;;;;;;9.10;60.67;95266.34;5066521;28;20032;-75
2022/11/12 06:55:26;;;;;;;6.60;4.18;;;;;;;9.13;60.32;95249.84;5066371;28;20048;-75
2022/11/12 06:57:52;;;;;;;8.00;4.57;;;;;;;9.15;59.68;95259.16;5066681;28;20064;-75
2022/11/12 07:00:18;;;;;;;9.40;3.78;;;;;;;9.15;59.13;95253.03;5066747;28;20066;-74
2022/11/12 07:02:43;;;;;;;7.32;4.18;;;;;;;9.15;59.66;95256.47;5066482;28;20309;-75
2022/11/12 07:05:09;;;;;;;11.35;4.70;;;;;;;9.19;60.11;95257.53;5066348;28;20223;-75
2022/11/12 07:07:35;;;;;;;13.18;4.78;;;;;;;9.22;60.00;95250.91;5066372;28;20029;-75
2022/11/12 07:10:00;;;;;;;12.00;4.95;;;;;;;9.24;60.17;95257.53;5066235;28;20025;-75
2022/11/12 07:12:26;;;;;;;8.93;5.05;;;;;;;9.32;59.36;95248.22;5066477;28;20090;-75
2022/11/12 07:14:51;;;;;;;6.97;4.60;;;;;;;9.32;58.96;95258.03;5066352;28;20074;-76
2022/11/12 07:17:16;;;;;;;8.50;4.70;;;;;;;9.41;59.17;95251.91;5066186;28;20021;-76
2022/11/12 07:19:42;;;;;;;12.57;5.25;;;;;;;9.49;59.45;95247.09;5066331;28;20082;-75
2022/11/12 07:22:07;;;;;;;10.55;4.78;;;;;;;9.57;58.86;95247.31;5066251;28;20020;-76
2022/11/12 07:24:33;;;;;;;12.98;5.15;;;;;;;9.63;58.64;95250.78;5066101;28;20021;-75
2022/11/12 07:26:58;;;;;;;11.60;4.78;;;;;;;9.69;58.46;95257.66;5065993;28;20021;-76
2022/11/12 07:29:23;;;;;;;8.25;4.63;;;;;;;9.80;58.34;95245.09;5065914;28;20025;-76
2022/11/12 07:31:49;;;;;;;9.20;4.45;;;;;;;9.84;57.79;95249.59;5065920;28;20025;-75
2022/11/12 07:34:14;;;;;;;10.48;4.88;;;;;;;9.91;57.66;95251.16;5066066;28;20025;-76
2022/11/12 07:36:40;;;;;;;10.90;5.22;;;;;;;9.92;57.71;95250.09;5065915;28;20383;-75
2022/11/12 07:39:05;;;;;;;11.52;4.70;;;;;;;9.97;57.75;95244.72;5065919;28;20095;-77
2022/11/12 07:41:30;;;;;;;8.88;4.13;;;;;;;10.04;57.54;95251.34;5065475;28;20043;-75
2022/11/12 07:43:56;;;;;;;7.30;4.93;;;;;;;10.04;57.45;95247.91;5065831;28;20029;-76
2022/11/12 07:46:24;;;;;;;8.20;5.10;;;;;;;10.04;56.76;95248.69;5065752;28;20028;-76
2022/11/12 07:48:50;;;;;;;8.65;4.45;;;;;;;10.02;56.79;95253.50;5065836;28;20021;-75
2022/11/12 07:51:20;;;;;;;7.40;4.47;;;;;;;10.07;57.02;95252.66;5065375;28;20032;-75
2022/11/12 07:53:47;;;;;;;11.00;5.28;;;;;;;10.10;57.13;95254.78;5065104;28;20052;-75
2022/11/12 07:56:19;;;;;;;8.73;5.00;;;;;;;10.16;57.07;95255.56;5065672;28;20361;-75
2022/11/12 07:58:44;;;;;;;10.13;4.85;;;;;;;10.20;56.92;95254.72;5065307;28;20087;-75
2022/11/12 08:01:36;;;;;;;8.90;5.10;;;;;;;10.24;56.51;95247.00;5065211;28;20021;-74
2022/11/12 08:04:05;;;;;;;7.93;4.73;;;;;;;10.25;56.24;95252.03;5065374;28;20341;-76
2022/11/12 08:06:31;;;;;;;13.55;6.30;;;;;;;10.28;56.34;95249.88;5065449;28;20016;-76
2022/11/12 08:08:59;;;;;;;15.48;5.22;;;;;;;10.25;56.16;95260.03;5065324;28;20021;-76
2022/11/12 08:11:24;;;;;;;13.82;4.65;;;;;;;10.20;55.34;95268.06;5065011;28;20021;-76
2022/11/12 08:13:50;;;;;;;7.57;4.22;;;;;;;10.12;56.02;95257.19;5065382;28;20389;-76
2022/11/12 08:16:16;;;;;;;9.18;4.43;;;;;;;10.12;56.06;95260.66;5065082;28;20226;-76
2022/11/12 08:18:43;;;;;;;8.35;4.57;;;;;;;10.09;56.39;95257.72;5065041;28;20350;-76
2022/11/12 08:21:12;;;;;;;10.70;5.90;;;;;;;10.09;56.33;95271.84;5064951;28;20063;-74
2022/11/12 08:23:38;;;;;;;12.77;5.28;;;;;;;10.03;55.50;95270.28;5065167;28;20028;-75
2022/11/12 08:26:14;;;;;;;16.17;5.40;;;;;;;10.02;56.43;95274.03;5064868;28;20193;-75
2022/11/12 08:28:39;;;;;;;7.95;4.93;;;;;;;9.95;56.21;95271.66;5064810;28;20056;-75
2022/11/12 08:31:13;;;;;;;12.27;5.18;;;;;;;9.95;56.72;95273.50;5064892;28;20033;-75
2022/11/12 08:33:39;;;;;;;10.73;6.00;;;;;;;9.92;56.87;95282.06;5064894;28;20024;-75
2022/11/12 08:36:07;;;;;;;9.65;5.35;;;;;;;9.91;56.79;95275.94;5064764;28;20337;-75
2022/11/12 08:38:33;;;;;;;9.57;5.75;;;;;;;9.88;56.91;95281.03;5065007;28;20037;-75
2022/11/12 08:41:00;;;;;;;11.82;5.75;;;;;;;9.89;56.66;95271.94;5064341;28;20031;-75
2022/11/12 08:43:25;;;;;;;12.70;5.50;;;;;;;9.93;57.06;95279.13;5064646;28;20033;-75
2022/11/12 08:45:51;;;;;;;13.73;4.97;;;;;;;9.98;56.92;95270.31;5064748;28;20044;-75
2022/11/12 08:48:16;;;;;;;14.35;4.95;;;;;;;10.02;57.03;95274.81;5064340;28;20120;-75
2022/11/12 08:50:42;;;;;;;9.80;5.72;;;;;;;10.09;56.75;95279.81;5063977;28;20045;-76
2022/11/12 08:53:11;;;;;;;8.30;4.55;;;;;;;10.15;56.66;95281.41;5064123;28;20066;-75
2022/11/12 08:55:37;;;;;;;10.70;5.00;;;;;;;10.24;56.45;95287.75;5063918;28;20024;-75
2022/11/12 08:58:03;;;;;;;9.88;4.68;;;;;;;10.30;55.51;95285.06;5064089;28;20040;-75
2022/11/12 09:00:31;;;;;;;12.43;5.55;;;;;;;10.30;55.96;95279.75;5063985;28;20180;-75
2022/11/12 09:03:02;;;;;;;9.10;5.03;;;;;;;10.30;56.01;95272.56;5063824;28;20096;-76
2022/11/12 09:05:28;;;;;;;7.50;4.63;;;;;;;10.34;56.37;95278.13;5063158;28;20024;-75
2022/11/12 09:08:02;;;;;;;12.52;4.80;;;;;;;10.47;55.76;95274.06;5063746;28;20306;-74
2022/11/12 09:10:28;;;;;;;9.98;4.60;;;;;;;10.56;55.74;95281.19;5064124;28;20157;-74
2022/11/12 09:12:53;;;;;;;8.30;4.30;;;;;;;10.64;55.21;95269.94;5064085;28;20215;-75
2022/11/12 09:15:20;;;;;;;11.35;4.55;;;;;;;10.73;54.51;95270.13;5064122;28;20027;-75
2022/11/12 09:17:45;;;;;;;9.65;4.15;;;;;;;10.76;54.18;95266.09;5064037;28;20043;-75
2022/11/12 09:20:10;;;;;;;6.95;4.07;;;;;;;10.77;54.07;95270.38;5063708;28;20300;-75
2022/11/12 09:22:36;;;;;;;7.70;5.15;;;;;;;10.87;54.17;95274.78;5063772;28;20096;-74
2022/11/12 09:25:01;;;;;;;9.50;4.57;;;;;;;10.93;53.77;95271.81;5063903;28;20017;-74
2022/11/12 09:27:28;;;;;;;9.30;4.50;;;;;;;10.94;54.29;95276.06;5063809;28;20028;-74
2022/11/12 09:29:53;;;;;;;7.78;4.78;;;;;;;10.97;53.70;95272.03;5063569;28;20033;-74
2022/11/12 09:32:19;;;;;;;8.30;4.35;;;;;;;11.07;52.78;95279.16;5063789;28;20318;-75
2022/11/12 09:34:44;;;;;;;10.68;5.43;;;;;;;11.11;53.25;95274.84;5063675;28;20100;-75
2022/11/12 09:37:09;;;;;;;9.02;5.18;;;;;;;11.08;53.20;95270.09;5063559;28;20033;-75
2022/11/12 09:39:35;;;;;;;11.95;4.57;;;;;;;11.04;53.57;95275.19;5063600;28;20025;-75
2022/11/12 09:42:12;;;;;;;7.88;3.90;;;;;;;11.02;52.92;95277.34;5063433;28;20300;-75
2022/11/12 09:44:40;;;;;;;6.95;4.00;;;;;;;10.98;53.59;95266.44;5063331;28;20051;-75
2022/11/12 09:47:19;;;;;;;10.45;4.63;;;;;;;10.98;54.07;95274.44;5063341;28;20407;-75
2022/11/12 09:49:54;;;;;;;6.95;3.53;;;;;;;10.92;53.86;95278.22;5063059;28;20025;-75
2022/11/12 09:52:28;;;;;;;8.32;4.40;;;;;;;10.88;54.42;95279.06;5063300;28;20028;-75
2022/11/12 09:55:12;;;;;;;6.97;4.30;;;;;;;10.83;54.48;95277.25;5062988;28;20021;-75
2022/11/12 09:57:37;;;;;;;7.93;4.05;;;;;;;10.75;54.43;95267.97;5063169;28;20319;-73
2022/11/12 10:00:16;;;;;;;6.80;3.90;;;;;;;10.69;54.89;95277.09;5063179;28;20041;-75
2022/11/12 10:02:52;;;;;;;9.30;4.22;;;;;;;10.63;55.07;95275.53;5063053;28;20119;-75
2022/11/12 10:05:35;;;;;;;8.98;3.40;;;;;;;10.59;55.35;95272.63;5061959;28;20056;-75
2022/11/12 10:08:31;;;;;;;6.90;4.07;;;;;;;10.61;55.51;95272.34;5063089;28;20055;-75
2022/11/12 10:11:24;;;;;;;9.20;4.03;;;;;;;10.61;55.56;95267.81;5062562;28;20048;-75
2022/11/12 10:13:52;;;;;;;8.05;4.10;;;;;;;10.68;56.21;95272.03;5063085;28;20207;-75
2022/11/12 10:16:42;;;;;;;10.57;4.50;;;;;;;10.74;56.52;95271.69;5062805;28;20040;-75
2022/11/12 10:19:45;;;;;;;6.57;3.75;;;;;;;10.81;56.67;95274.06;5062656;28;20036;-75
2022/11/12 10:22:26;;;;;;;7.25;3.95;;;;;;;10.81;56.93;95274.06;5040766;28;20135;-74
2022/11/12 10:24:52;;;;;;;10.23;5.30;;;;;;;10.90;57.10;95268.91;5058054;28;20036;-76
2022/11/12 10:27:21;;;;;;;18.30;8.63;;;;;;;10.98;55.60;95260.31;5062953;28;20025;-76
2022/11/12 10:30:05;;;;;;;22.63;9.18;;;;;;;11.13;54.42;95267.38;5062469;28;20055;-76
2022/11/12 10:32:30;;;;;;;19.00;6.93;;;;;;;11.18;53.57;95265.44;5061317;28;20025;-75
2022/11/12 10:34:56;;;;;;;12.73;6.07;;;;;;;11.19;52.75;95266.25;5060875;28;20024;-75
2022/11/12 10:37:27;;;;;;;12.75;6.30;;;;;;;11.22;52.63;95265.69;5061050;28;20028;-75
2022/11/12 10:39:53;;;;;;;8.05;3.95;;;;;;;11.22;51.89;95265.69;5060894;28;20219;-75
2022/11/12 10:42:21;;;;;;;8.48;4.22;;;;;;;11.22;51.86;95271.03;5060978;28;20029;-75
2022/11/12 10:44:47;;;;;;;5.47;3.60;;;;;;;11.19;52.56;95263.56;5060938;28;20025;-75
2022/11/12 10:47:37;;;;;;;11.60;4.30;;;;;;;11.22;53.00;95271.81;5060842;28;20311;-75
2022/11/12 10:50:17;;;;;;;5.45;3.38;;;;;;;11.24;53.27;95263.53;5060779;28;20078;-75
2022/11/12 10:53:01;;;;;;;7.22;4.80;;;;;;;11.26;53.91;95269.38;5060765;28;20301;-75
2022/11/12 10:55:28;;;;;;;7.60;3.50;;;;;;;11.24;55.24;95263.53;5061130;28;20021;-75
2022/11/12 10:58:09;;;;;;;6.63;3.78;;;;;;;11.20;55.21;95263.28;5062432;28;20048;-75
2022/11/12 11:00:53;;;;;;;9.05;3.83;;;;;;;11.17;55.78;95268.41;5062450;28;20021;-75
2022/11/12 11:03:30;;;;;;;6.75;3.53;;;;;;;11.15;56.49;95273.22;5061495;28;20032;-75
2022/11/12 11:06:01;;;;;;;7.95;4.28;;;;;;;11.15;56.37;95257.22;5062285;28;20077;-75
2022/11/12 11:08:35;;;;;;;6.23;3.97;;;;;;;11.17;56.24;95274.53;5062621;28;20028;-75
2022/11/12 11:11:17;;;;;;;10.88;3.72;;;;;;;11.17;55.95;95271.06;5062426;28;20283;-75
2022/11/12 11:13:43;;;;;;;;;;;;;;;11.09;55.61;95263.66;5062720;28;20188;-75
2022/11/12 11:16:26;;;;;;;12.07;3.70;;;;;;;10.96;55.71;95268.59;5062608;28;19901;-75
2022/11/12 11:18:56;;;;;;;10.27;4.28;;;;;;;10.95;56.17;95260.84;5062536;28;20031;-75
2022/11/12 11:21:43;;;;;;;6.97;3.47;;;;;;;10.92;56.16;95256.88;5062143;28;20025;-75
2022/11/12 11:24:18;;;;;;;6.00;3.38;;;;;;;10.91;56.53;95265.97;5062130;28;20103;-74
2022/11/12 11:27:01;;;;;;;7.57;3.90;;;;;;;10.91;56.64;95270.50;5062083;28;20075;-75
2022/11/12 11:30:02;;;;;;;6.72;3.30;;;;;;;10.92;57.06;95264.88;5064788;28;20032;-74
2022/11/12 11:32:53;;;;;;;5.47;3.53;;;;;;;10.94;56.65;95268.06;5066146;28;20196;-75
2022/11/12 11:35:54;;;;;;;6.72;3.42;;;;;;;10.94;56.56;95273.41;5065889;28;20020;-75
2022/11/12 11:38:46;;;;;;;7.03;3.90;;;;;;;10.91;55.95;95270.50;5065974;28;20029;-75
2022/11/12 11:41:30;;;;;;;6.20;3.55;;;;;;;10.86;56.47;95271.34;5065906;28;20017;-75
2022/11/12 11:44:05;;;;;;;14.20;4.13;;;;;;;10.87;56.14;95267.63;5064526;28;20025;-75
2022/11/12 11:47:05;;;;;;;6.43;3.92;;;;;;;10.88;56.35;95271.06;5065730;28;20024;-76
2022/11/12 11:49:52;;;;;;;11.65;3.80;;;;;;;10.91;56.38;95263.31;5043726;28;20029;-76
2022/11/12 11:52:36;;;;;;;10.63;3.45;;;;;;;10.94;56.08;95260.06;5064275;28;20082;-75
2022/11/12 11:55:39;;;;;;;8.55;2.85;;;;;;;10.93;55.86;95263.00;5065473;28;20092;-76
2022/11/12 11:58:08;;;;;;;5.93;2.50;;;;;;;10.91;55.59;95268.66;5065228;28;20052;-74
2022/11/12 12:00:45;;;;;;;6.47;2.78;;;;;;;10.94;55.57;95268.06;5065444;28;20033;-74